Terminal Aerodrome Forecast
Issued by NWS Sterling, VA

Current Version | Previous Version | Text Only | Print | Product List | Glossary Off
Versions: 1 2 3 4 5 6 7 8 9 10 11 12 13 14 15 16 17 18 19 20 21 22 23 24 25

000
FTUS41 KLWX 270538
TAFIAD
TAF
KIAD 270538Z 2706/2812 33012KT 5SM -RA OVC050
     FM271000 36009KT 4SM -RA OVC025
     FM271300 35007KT P6SM OVC045
     FM281100 33011KT P6SM BKN250=

USA.gov is the U.S. government's official web portal to all federal, state and local government web resources and services.